createdAt,value
2023-02-01T00:00:12.843Z,4.50
2023-02-01T00:01:10.528Z,4.70
2023-02-01T00:01:44.117Z,4.40
2023-02-01T00:02:17.639Z,4.10
2023-02-01T00:02:51.222Z,4.30
2023-02-01T00:03:24.740Z,4.40
2023-02-01T00:03:58.178Z,3.80
2023-02-01T00:04:32.021Z,3.80
2023-02-01T00:05:05.938Z,4.50
2023-02-01T00:05:39.370Z,4.20
2023-02-01T00:06:12.793Z,4.90
2023-02-01T00:06:46.181Z,4.70
2023-02-01T00:07:19.497Z,4.60
2023-02-01T00:07:52.982Z,3.40
2023-02-01T00:08:26.842Z,3.50
2023-02-01T00:09:32.706Z,4.60
2023-02-01T00:10:07.757Z,3.50
2023-02-01T00:10:41.077Z,4.40
2023-02-01T00:11:14.957Z,4.10
2023-02-01T00:11:48.501Z,3.30
2023-02-01T00:12:22.044Z,4.70
2023-02-01T00:12:57.871Z,3.80
2023-02-01T00:13:44.461Z,4.50
2023-02-01T00:14:21.647Z,4.40
2023-02-01T00:14:55.217Z,4.40
2023-02-01T00:15:28.638Z,4.30
2023-02-01T00:16:08.998Z,3.20
2023-02-01T00:16:42.431Z,3.60
2023-02-01T00:17:15.895Z,4.20
2023-02-01T00:17:49.300Z,4.60
2023-02-01T00:18:22.792Z,3.90
2023-02-01T00:19:05.077Z,4.40
2023-02-01T00:19:38.719Z,4.50
2023-02-01T00:20:12.524Z,4.80
2023-02-01T00:20:48.585Z,5.00
2023-02-01T00:21:22.591Z,4.80
2023-02-01T00:21:56.051Z,4.60
2023-02-01T00:22:29.512Z,3.60
2023-02-01T00:23:03.000Z,4.40
2023-02-01T00:23:40.185Z,4.50
2023-02-01T00:27:25.248Z,4.30
2023-02-01T00:28:14.145Z,3.40
2023-02-01T00:28:48.080Z,4.40
2023-02-01T00:29:21.918Z,4.20
2023-02-01T00:29:58.328Z,4.30
2023-02-01T00:30:31.842Z,4.60
2023-02-01T00:31:57.011Z,3.40
2023-02-01T00:32:14.338Z,3.60
2023-02-01T00:32:47.814Z,4.40
2023-02-01T00:33:21.257Z,4.50
2023-02-01T00:33:54.733Z,4.30
2023-02-01T00:34:28.103Z,5.20
2023-02-01T00:35:01.657Z,2.80
2023-02-01T00:35:36.432Z,4.30
2023-02-01T00:36:10.900Z,4.80
2023-02-01T00:36:45.131Z,5.40
2023-02-01T00:37:18.596Z,4.20
2023-02-01T00:37:51.986Z,5.40
2023-02-01T00:38:28.935Z,4.80
2023-02-01T00:39:02.650Z,4.80
2023-02-01T00:39:36.378Z,5.40
2023-02-01T00:40:42.323Z,4.80
2023-02-01T00:41:20.944Z,4.10
2023-02-01T00:41:54.839Z,4.80
2023-02-01T00:42:28.487Z,4.70
2023-02-01T00:43:01.846Z,4.50
2023-02-01T00:43:36.083Z,4.80
2023-02-01T00:44:09.550Z,5.50
2023-02-01T00:44:42.994Z,4.90
2023-02-01T00:45:17.113Z,5.00
2023-02-01T00:45:50.634Z,5.50
2023-02-01T00:46:24.566Z,5.40
2023-02-01T00:49:06.076Z,2.30
2023-02-01T00:49:42.962Z,4.10
2023-02-01T00:50:16.967Z,4.50
2023-02-01T00:50:50.380Z,4.90
2023-02-01T00:51:30.205Z,5.10
2023-02-01T00:52:04.077Z,4.20
2023-02-01T00:52:37.593Z,4.50
2023-02-01T00:53:12.211Z,4.50
2023-02-01T00:53:46.573Z,4.50
2023-02-01T00:54:20.055Z,4.60
2023-02-01T00:54:53.675Z,4.70
2023-02-01T00:55:27.148Z,5.30
2023-02-01T00:56:01.405Z,5.30
2023-02-01T00:56:35.406Z,5.70
2023-02-01T00:57:17.103Z,5.30
2023-02-01T00:57:50.703Z,4.40
2023-02-01T00:58:27.797Z,5.30
2023-02-01T00:59:01.500Z,4.80
2023-02-01T00:59:35.865Z,5.30
2023-02-01T01:00:11.013Z,5.50
2023-02-01T01:00:44.581Z,5.40
2023-02-01T01:01:22.341Z,5.70
2023-02-01T01:01:56.112Z,5.40
2023-02-01T01:03:59.714Z,4.70
2023-02-01T01:04:33.109Z,4.00
2023-02-01T01:05:27.942Z,4.20
2023-02-01T01:06:04.217Z,4.50
2023-02-01T01:06:37.966Z,4.70
2023-02-01T01:07:11.481Z,5.00
2023-02-01T01:20:04.786Z,5.00
2023-02-01T01:20:40.558Z,4.50
2023-02-01T01:21:15.927Z,4.80
2023-02-01T01:21:49.531Z,5.00
2023-02-01T01:22:23.401Z,4.50
2023-02-01T01:22:56.809Z,4.60
2023-02-01T01:23:30.498Z,4.90
2023-02-01T01:24:04.263Z,4.60
2023-02-01T01:24:37.905Z,4.70
2023-02-01T01:25:11.340Z,4.70
2023-02-01T01:25:44.704Z,4.40
2023-02-01T01:26:21.343Z,4.10
2023-02-01T01:26:54.830Z,4.40
2023-02-01T01:27:28.246Z,5.40
2023-02-01T01:28:01.767Z,5.00
2023-02-01T01:28:35.794Z,4.80
2023-02-01T01:29:12.222Z,4.30
2023-02-01T01:29:45.711Z,4.50
2023-02-01T01:30:19.555Z,3.10
2023-02-01T01:30:53.356Z,3.10
2023-02-01T01:31:27.929Z,4.40
2023-02-01T01:32:01.622Z,3.80
2023-02-01T01:32:35.243Z,4.10
2023-02-01T01:33:08.707Z,3.70
2023-02-01T01:33:42.286Z,3.70
2023-02-01T01:34:15.709Z,4.40
2023-02-01T01:34:49.199Z,4.70
2023-02-01T01:35:22.869Z,5.10
2023-02-01T01:35:56.442Z,4.10
2023-02-01T01:36:30.438Z,3.90
2023-02-01T01:37:04.093Z,4.70
2023-02-01T01:37:37.546Z,4.40
2023-02-01T01:38:12.547Z,5.40
2023-02-01T01:38:46.059Z,5.10
2023-02-01T01:39:19.450Z,4.60
2023-02-01T01:39:52.977Z,4.30
2023-02-01T01:40:27.858Z,3.60
2023-02-01T01:41:02.674Z,4.70
2023-02-01T01:41:38.641Z,3.70
2023-02-01T01:42:21.640Z,4.20
2023-02-01T01:42:56.517Z,3.80
2023-02-01T01:43:47.330Z,4.40
2023-02-01T01:45:00.878Z,3.10
2023-02-01T01:45:36.311Z,3.70
2023-02-01T01:46:09.725Z,3.40
2023-02-01T01:46:43.242Z,4.20
2023-02-01T01:47:17.652Z,3.90
2023-02-01T01:47:55.634Z,4.90
2023-02-01T01:48:31.369Z,4.50
2023-02-01T01:49:18.821Z,4.30
2023-02-01T01:49:54.963Z,4.00
2023-02-01T01:50:53.297Z,4.50
2023-02-01T01:51:29.675Z,4.50
2023-02-01T01:52:04.412Z,4.30
2023-02-01T01:52:39.875Z,3.60
2023-02-01T01:53:17.584Z,4.80
2023-02-01T01:54:03.898Z,4.90
2023-02-01T01:54:46.526Z,4.50
2023-02-01T01:55:21.730Z,4.40
2023-02-01T01:55:56.834Z,3.30
2023-02-01T01:56:32.648Z,4.80
2023-02-01T01:57:13.116Z,4.60
2023-02-01T01:58:06.388Z,4.00
2023-02-01T01:58:40.591Z,5.10
2023-02-01T01:59:14.059Z,4.80
2023-02-01T02:00:09.941Z,4.90
2023-02-01T02:00:50.329Z,3.40
2023-02-01T02:01:23.859Z,3.10
2023-02-01T02:01:57.297Z,3.60
2023-02-01T02:02:31.521Z,4.50
2023-02-01T02:03:13.143Z,5.00
2023-02-01T02:03:48.899Z,3.90
2023-02-01T02:04:22.787Z,4.90
2023-02-01T02:04:56.232Z,5.00
2023-02-01T02:05:30.505Z,5.00
2023-02-01T02:06:09.027Z,5.30
2023-02-01T02:06:49.232Z,4.90
2023-02-01T02:07:31.177Z,3.70
2023-02-01T02:08:04.878Z,5.10
2023-02-01T02:08:38.863Z,4.90
2023-02-01T02:09:15.624Z,2.80
2023-02-01T02:10:00.170Z,4.60
2023-02-01T02:11:01.835Z,4.60
2023-02-01T02:11:39.077Z,2.90
2023-02-01T02:12:12.438Z,3.60
2023-02-01T02:12:49.263Z,5.40
2023-02-01T02:13:23.418Z,4.20
2023-02-01T02:13:59.097Z,4.10
2023-02-01T02:14:34.621Z,5.00
2023-02-01T02:15:10.769Z,4.60
2023-02-01T02:15:59.170Z,4.90
2023-02-01T02:16:47.831Z,5.10
2023-02-01T02:17:59.416Z,3.90
2023-02-01T02:19:14.236Z,5.00
2023-02-01T02:20:06.409Z,3.80
2023-02-01T02:21:04.674Z,3.30
2023-02-01T02:22:03.922Z,4.80
2023-02-01T02:23:07.899Z,4.00
2023-02-01T02:24:19.115Z,4.30
2023-02-01T02:25:17.437Z,3.20
2023-02-01T02:25:53.914Z,3.90
2023-02-01T02:28:27.612Z,4.60
2023-02-01T02:29:47.775Z,5.20
2023-02-01T02:30:31.932Z,2.60
2023-02-01T02:31:55.130Z,4.10
2023-02-01T02:32:49.930Z,5.10
2023-02-01T02:33:51.363Z,5.10
2023-02-01T02:34:34.116Z,4.40
2023-02-01T02:35:13.070Z,5.40
2023-02-01T02:35:46.408Z,2.80
2023-02-01T02:36:35.409Z,6.20
2023-02-01T02:37:23.566Z,4.60
2023-02-01T02:38:13.135Z,5.50
2023-02-01T02:39:07.400Z,5.90
2023-02-01T02:39:48.601Z,5.60
2023-02-01T02:40:29.651Z,3.40
2023-02-01T02:41:34.877Z,4.70
2023-02-01T02:42:49.915Z,4.40
2023-02-01T02:44:02.209Z,5.20
2023-02-01T02:45:14.543Z,3.60
2023-02-01T02:46:21.471Z,3.60
2023-02-01T02:47:20.353Z,4.40
2023-02-01T02:48:04.661Z,4.40
2023-02-01T02:48:47.170Z,4.90
2023-02-01T02:52:10.048Z,4.10
2023-02-01T02:53:09.438Z,4.90
2023-02-01T02:54:11.680Z,4.40
2023-02-01T02:55:05.608Z,4.60
2023-02-01T02:55:41.648Z,4.50
2023-02-01T02:56:41.837Z,4.80
2023-02-01T02:59:04.276Z,4.90
2023-02-01T02:59:59.964Z,4.20
2023-02-01T03:00:58.256Z,4.30
2023-02-01T03:02:05.567Z,4.00
2023-02-01T03:02:58.080Z,4.80
2023-02-01T03:03:50.316Z,4.00
2023-02-01T03:04:24.689Z,5.20
2023-02-01T03:05:51.740Z,4.90
2023-02-01T03:06:26.585Z,5.00
2023-02-01T03:07:33.455Z,5.30
2023-02-01T03:08:17.584Z,3.90
2023-02-01T03:08:57.998Z,4.70
2023-02-01T03:09:38.723Z,5.10
2023-02-01T03:10:25.461Z,5.00
2023-02-01T03:13:52.445Z,4.50
2023-02-01T03:14:29.934Z,4.40
2023-02-01T03:15:13.920Z,4.90
2023-02-01T03:16:14.658Z,4.50
2023-02-01T03:16:53.504Z,4.20
2023-02-01T03:17:35.002Z,4.00
2023-02-01T03:18:35.233Z,5.10
2023-02-01T03:19:18.406Z,3.90
2023-02-01T03:19:54.491Z,4.40
2023-02-01T03:23:53.862Z,5.10
2023-02-01T03:24:52.942Z,4.80
2023-02-01T03:25:33.632Z,4.50
2023-02-01T03:26:11.241Z,4.70
2023-02-01T03:30:07.814Z,3.90
2023-02-01T03:32:01.950Z,4.20
2023-02-01T03:32:55.861Z,5.20
2023-02-01T03:33:31.480Z,5.30
2023-02-01T03:33:31.657Z,4.00
2023-02-01T03:34:06.322Z,3.60
2023-02-01T03:34:40.535Z,4.60
2023-02-01T03:35:14.206Z,4.80
2023-02-01T03:36:27.289Z,4.60
2023-02-01T03:37:33.674Z,5.30
2023-02-01T03:38:49.017Z,5.70
2023-02-01T03:39:33.520Z,4.10
2023-02-01T03:40:15.473Z,5.50
2023-02-01T03:40:56.870Z,4.40
2023-02-01T03:41:43.724Z,5.30
2023-02-01T03:42:29.997Z,5.70
2023-02-01T03:43:08.568Z,5.20
2023-02-01T03:43:56.980Z,4.80
2023-02-01T03:44:52.776Z,4.90
2023-02-01T03:45:35.385Z,5.00
2023-02-01T03:46:29.032Z,4.50
2023-02-01T03:47:10.362Z,4.50
2023-02-01T03:48:07.543Z,5.30
2023-02-01T03:48:42.124Z,3.80
2023-02-01T03:49:24.146Z,5.00
2023-02-01T03:50:21.278Z,4.10
2023-02-01T03:52:22.809Z,4.10
2023-02-01T03:53:06.006Z,4.60
2023-02-01T03:53:41.440Z,4.30
2023-02-01T03:54:16.973Z,5.10
2023-02-01T03:54:52.071Z,5.30
2023-02-01T03:55:28.670Z,3.00
2023-02-01T03:57:45.019Z,4.70
2023-02-01T03:58:24.093Z,3.00
2023-02-01T03:59:23.182Z,3.80
2023-02-01T04:02:32.820Z,4.40
2023-02-01T04:03:07.953Z,4.90
2023-02-01T04:03:41.343Z,4.90
2023-02-01T04:04:21.145Z,4.40
2023-02-01T04:04:57.467Z,5.30
2023-02-01T04:05:31.596Z,4.90
2023-02-01T04:06:10.298Z,5.50
2023-02-01T04:06:43.746Z,5.60
2023-02-01T04:07:18.219Z,5.60
2023-02-01T04:07:51.681Z,5.60
2023-02-01T04:10:12.241Z,4.30
2023-02-01T04:10:45.615Z,4.70
2023-02-01T04:12:47.799Z,3.90
2023-02-01T04:13:21.213Z,4.20
2023-02-01T04:13:54.728Z,5.30
2023-02-01T04:14:29.647Z,5.60
2023-02-01T04:15:07.628Z,3.80
2023-02-01T04:15:41.038Z,4.90
2023-02-01T04:16:14.557Z,5.30
2023-02-01T04:16:47.870Z,5.50
2023-02-01T04:17:21.277Z,4.50
2023-02-01T04:17:54.708Z,5.70
2023-02-01T04:18:28.142Z,5.20
2023-02-01T04:19:01.765Z,4.20
2023-02-01T04:19:35.534Z,5.30
2023-02-01T04:20:22.954Z,5.50
2023-02-01T04:24:54.522Z,4.00
2023-02-01T04:25:28.032Z,3.80
2023-02-01T04:26:03.575Z,4.70
2023-02-01T04:26:37.082Z,4.50
2023-02-01T04:27:10.374Z,3.50
2023-02-01T04:27:43.977Z,4.90
2023-02-01T04:28:17.268Z,5.40
2023-02-01T04:28:50.752Z,4.20
2023-02-01T04:29:24.212Z,3.90
2023-02-01T04:29:58.523Z,5.70
2023-02-01T04:30:32.372Z,4.90
2023-02-01T04:31:06.252Z,5.90
2023-02-01T04:31:42.275Z,5.80
2023-02-01T04:32:17.165Z,5.10
2023-02-01T04:33:19.452Z,3.40
2023-02-01T04:33:50.382Z,4.60
2023-02-01T04:34:25.896Z,5.20
2023-02-01T04:34:59.306Z,4.50
2023-02-01T04:35:32.857Z,5.40
2023-02-01T04:36:06.576Z,5.80
2023-02-01T04:36:42.956Z,5.10
2023-02-01T04:37:16.352Z,4.80
2023-02-01T04:37:49.927Z,5.10
2023-02-01T04:38:23.502Z,5.30
2023-02-01T04:38:56.933Z,3.40
2023-02-01T04:39:41.270Z,4.70
2023-02-01T04:40:39.065Z,5.30
2023-02-01T04:41:25.626Z,5.40
2023-02-01T04:41:59.108Z,4.70
2023-02-01T04:42:32.467Z,4.40
2023-02-01T04:43:05.921Z,3.90
2023-02-01T04:44:29.803Z,4.00
2023-02-01T04:44:44.208Z,4.60
2023-02-01T04:45:22.836Z,4.00
2023-02-01T04:46:09.251Z,5.10
2023-02-01T04:46:43.092Z,5.20
2023-02-01T04:47:17.093Z,4.80
2023-02-01T04:47:50.547Z,5.70
2023-02-01T04:48:46.517Z,5.10
2023-02-01T04:49:22.374Z,5.00
2023-02-01T04:51:31.516Z,5.00
2023-02-01T04:52:05.119Z,4.70
2023-02-01T04:52:38.682Z,4.80
2023-02-01T04:53:12.275Z,5.90
2023-02-01T04:53:46.119Z,6.10
2023-02-01T04:54:19.509Z,6.10
2023-02-01T04:54:55.914Z,5.70
2023-02-01T04:55:32.791Z,5.60
2023-02-01T04:56:28.519Z,5.80
2023-02-01T04:57:02.049Z,5.10
2023-02-01T04:57:35.573Z,4.70
2023-02-01T04:58:09.641Z,6.00
2023-02-01T04:58:43.467Z,5.60
2023-02-01T04:59:16.938Z,6.00
2023-02-01T04:59:50.240Z,4.80
2023-02-01T05:00:24.160Z,4.90
2023-02-01T05:00:57.946Z,5.60
2023-02-01T05:01:31.885Z,5.10
2023-02-01T05:02:05.245Z,5.20
2023-02-01T05:02:38.998Z,5.60
2023-02-01T05:03:12.233Z,5.90
2023-02-01T05:03:45.628Z,5.20
2023-02-01T05:04:19.809Z,6.00
2023-02-01T05:04:53.277Z,5.40
2023-02-01T05:05:27.611Z,4.90
2023-02-01T05:06:01.516Z,4.70
2023-02-01T05:06:35.123Z,4.70
2023-02-01T05:07:08.617Z,5.10
2023-02-01T05:07:42.024Z,4.80
2023-02-01T05:08:16.836Z,3.30
2023-02-01T05:08:50.482Z,3.60
2023-02-01T05:09:23.834Z,5.00
2023-02-01T05:09:57.307Z,5.10
2023-02-01T05:10:30.663Z,4.80
2023-02-01T05:11:04.709Z,4.20
2023-02-01T05:14:04.850Z,3.40
2023-02-01T05:14:38.241Z,4.20
2023-02-01T05:15:11.671Z,4.50
2023-02-01T05:15:47.341Z,4.40
2023-02-01T05:16:20.861Z,4.30
2023-02-01T05:20:03.004Z,3.60
2023-02-01T05:21:21.887Z,2.90
2023-02-01T05:21:55.410Z,3.60
2023-02-01T05:22:28.877Z,3.90
2023-02-01T05:23:02.258Z,4.20
2023-02-01T05:23:55.793Z,4.40
2023-02-01T05:24:29.229Z,3.20
2023-02-01T05:25:02.588Z,4.30
2023-02-01T05:25:36.017Z,4.20
2023-02-01T05:26:09.376Z,3.80
2023-02-01T05:26:43.535Z,4.60
2023-02-01T05:27:16.964Z,3.80
2023-02-01T05:27:50.340Z,4.10
2023-02-01T05:28:23.779Z,3.70
2023-02-01T05:28:57.292Z,4.40
2023-02-01T05:29:30.815Z,3.90
2023-02-01T05:30:06.218Z,3.20
2023-02-01T05:30:42.153Z,3.00
2023-02-01T05:31:15.886Z,4.00
2023-02-01T05:31:49.762Z,3.70
2023-02-01T05:32:23.761Z,3.10
2023-02-01T05:32:57.204Z,3.80
2023-02-01T05:33:30.636Z,3.30
2023-02-01T05:34:05.362Z,3.60
2023-02-01T05:34:38.791Z,4.00
2023-02-01T05:35:12.197Z,3.90
2023-02-01T05:35:45.695Z,3.80
2023-02-01T05:36:19.379Z,4.10
2023-02-01T05:36:52.856Z,3.90
2023-02-01T05:37:26.853Z,3.70
2023-02-01T05:38:00.248Z,4.40
2023-02-01T05:38:34.122Z,4.20
2023-02-01T05:39:07.454Z,4.30
2023-02-01T05:39:40.901Z,2.40
2023-02-01T05:40:14.312Z,3.20
2023-02-01T05:40:50.818Z,3.90
2023-02-01T05:41:24.412Z,3.90
2023-02-01T05:41:57.900Z,4.00
2023-02-01T05:42:31.276Z,2.90
2023-02-01T05:43:04.800Z,3.40
2023-02-01T05:43:38.235Z,4.10
2023-02-01T05:44:12.752Z,3.90
2023-02-01T05:44:46.241Z,3.80
2023-02-01T05:45:19.881Z,4.00
2023-02-01T05:45:54.062Z,3.10
2023-02-01T05:46:27.797Z,3.60
2023-02-01T05:47:17.629Z,2.90
2023-02-01T05:47:51.160Z,3.80
2023-02-01T05:48:24.772Z,3.30
2023-02-01T05:48:58.270Z,4.50
2023-02-01T05:49:31.837Z,3.00
2023-02-01T05:50:05.978Z,4.00
2023-02-01T05:50:39.386Z,4.20
2023-02-01T05:51:16.525Z,4.80
2023-02-01T05:51:49.952Z,4.80
2023-02-01T05:52:40.494Z,3.40
2023-02-01T05:56:53.867Z,4.30
2023-02-01T05:57:27.550Z,4.00
2023-02-01T05:58:01.223Z,3.20
2023-02-01T05:58:35.379Z,3.90
2023-02-01T05:59:08.987Z,4.40
2023-02-01T05:59:42.797Z,5.00
2023-02-01T06:00:16.561Z,5.10
2023-02-01T06:00:50.076Z,5.20
2023-02-01T06:01:23.688Z,4.50
2023-02-01T06:01:57.151Z,4.90
2023-02-01T06:02:30.571Z,6.00
2023-02-01T06:03:04.167Z,5.20
2023-02-01T06:03:38.225Z,5.00
2023-02-01T06:04:11.892Z,5.20
2023-02-01T06:04:45.314Z,4.20
2023-02-01T06:05:18.822Z,4.80
2023-02-01T06:05:52.311Z,5.40
2023-02-01T06:06:25.901Z,4.30
2023-02-01T06:06:59.652Z,5.70
2023-02-01T06:07:33.801Z,5.80
2023-02-01T06:08:08.876Z,5.50
2023-02-01T06:08:42.434Z,5.00
2023-02-01T06:09:16.001Z,5.90
2023-02-01T06:09:49.346Z,5.40
2023-02-01T06:10:23.352Z,6.10
2023-02-01T06:11:05.795Z,6.10
2023-02-01T06:11:41.444Z,5.20
2023-02-01T06:12:15.067Z,5.60
2023-02-01T06:12:48.670Z,5.50
2023-02-01T06:13:22.530Z,4.90
2023-02-01T06:13:56.584Z,4.90
2023-02-01T06:14:30.557Z,5.80
2023-02-01T06:15:04.700Z,5.20
2023-02-01T06:15:38.673Z,4.80
2023-02-01T06:16:12.423Z,5.40
2023-02-01T06:16:47.717Z,5.20
2023-02-01T06:17:21.066Z,5.60
2023-02-01T06:17:55.965Z,4.90
2023-02-01T06:18:30.964Z,5.70
2023-02-01T06:19:04.433Z,5.20
2023-02-01T06:19:37.933Z,4.80
2023-02-01T06:20:13.245Z,4.80
2023-02-01T06:20:46.866Z,4.20
2023-02-01T06:21:25.103Z,4.70
2023-02-01T06:21:58.707Z,3.60
2023-02-01T06:22:32.207Z,4.70
2023-02-01T06:23:06.795Z,4.70
2023-02-01T06:23:40.241Z,5.10
2023-02-01T06:24:13.934Z,5.20
2023-02-01T06:24:47.457Z,5.00
2023-02-01T06:25:22.438Z,5.40
2023-02-01T06:26:07.355Z,5.40
2023-02-01T06:26:41.338Z,5.10
2023-02-01T06:27:15.874Z,4.10
2023-02-01T06:27:49.570Z,4.40
2023-02-01T06:28:24.344Z,5.10
2023-02-01T06:28:57.807Z,5.20
2023-02-01T06:29:31.246Z,5.20
2023-02-01T06:30:06.692Z,4.30
2023-02-01T06:30:44.362Z,4.80
2023-02-01T06:31:18.264Z,4.30
2023-02-01T06:31:52.089Z,3.90
2023-02-01T06:32:25.795Z,4.10
2023-02-01T06:32:59.335Z,4.30
2023-02-01T06:33:33.010Z,4.60
2023-02-01T06:34:06.439Z,4.50
2023-02-01T06:34:40.800Z,4.10
2023-02-01T06:35:17.340Z,5.00
2023-02-01T06:35:59.556Z,4.30
2023-02-01T06:36:33.803Z,4.90
2023-02-01T06:37:07.111Z,4.00
2023-02-01T06:37:40.423Z,5.40
2023-02-01T06:38:14.835Z,4.30
2023-02-01T06:38:49.356Z,3.80
2023-02-01T06:39:22.873Z,3.60
2023-02-01T06:39:56.539Z,4.70
2023-02-01T06:40:29.903Z,4.40
2023-02-01T06:41:04.852Z,3.40
2023-02-01T06:41:38.282Z,4.10
2023-02-01T06:42:11.823Z,4.10
2023-02-01T06:42:45.360Z,5.20
2023-02-01T06:43:18.859Z,3.80
2023-02-01T06:43:52.663Z,4.70
2023-02-01T06:44:26.036Z,3.30
2023-02-01T06:44:59.339Z,3.20
2023-02-01T06:45:33.164Z,3.30
2023-02-01T06:46:08.872Z,4.40
2023-02-01T06:46:42.372Z,4.10
2023-02-01T06:47:15.807Z,4.90
2023-02-01T06:47:49.263Z,5.00
2023-02-01T06:48:22.559Z,4.20
2023-02-01T06:48:56.776Z,5.00
2023-02-01T06:49:30.273Z,4.50
2023-02-01T06:50:04.029Z,4.50
2023-02-01T06:50:37.571Z,4.50
2023-02-01T06:51:25.006Z,4.70
2023-02-01T06:51:58.556Z,3.30
2023-02-01T06:52:31.960Z,3.70
2023-02-01T06:53:05.530Z,3.90
2023-02-01T06:53:39.008Z,4.80
2023-02-01T06:54:15.003Z,4.60
2023-02-01T06:54:48.267Z,4.50
2023-02-01T06:55:21.612Z,4.60
2023-02-01T06:56:02.958Z,4.40
2023-02-01T06:56:36.447Z,4.20
2023-02-01T06:57:09.842Z,5.20
2023-02-01T06:57:43.165Z,4.40
2023-02-01T06:58:16.511Z,4.00
2023-02-01T06:58:50.199Z,4.00
2023-02-01T06:59:23.686Z,4.90
2023-02-01T06:59:57.388Z,3.80
2023-02-01T07:00:30.824Z,4.20
2023-02-01T07:01:09.411Z,5.00
2023-02-01T07:01:42.838Z,4.40
2023-02-01T07:02:16.251Z,3.90
2023-02-01T07:02:50.179Z,4.20
2023-02-01T07:03:23.677Z,4.00
2023-02-01T07:03:57.440Z,3.90
2023-02-01T07:04:31.478Z,4.30
2023-02-01T07:05:05.084Z,3.90
2023-02-01T07:05:38.507Z,4.20
2023-02-01T07:06:11.871Z,4.00
2023-02-01T07:06:45.281Z,4.40
2023-02-01T07:07:20.807Z,3.90
2023-02-01T07:07:54.208Z,5.00
2023-02-01T07:08:34.803Z,4.10
2023-02-01T07:09:08.531Z,4.90
2023-02-01T07:09:41.967Z,4.20
2023-02-01T07:10:15.437Z,4.70
2023-02-01T07:10:48.747Z,5.20
2023-02-01T07:11:25.224Z,4.30
2023-02-01T07:11:58.668Z,2.70
2023-02-01T07:12:32.135Z,4.80
2023-02-01T07:13:06.330Z,4.30
2023-02-01T07:13:40.352Z,5.30
2023-02-01T07:14:16.030Z,5.00
2023-02-01T07:14:49.371Z,4.70
2023-02-01T07:15:25.225Z,5.10
2023-02-01T07:16:04.139Z,3.80
2023-02-01T07:16:38.129Z,3.90
2023-02-01T07:17:30.499Z,5.00
2023-02-01T07:18:04.151Z,4.30
2023-02-01T07:18:37.664Z,5.80
2023-02-01T07:19:19.493Z,5.40
2023-02-01T07:19:52.992Z,4.60
2023-02-01T07:20:26.523Z,5.20
2023-02-01T07:21:00.977Z,4.60
2023-02-01T07:21:34.380Z,4.80
2023-02-01T07:22:09.689Z,5.60
2023-02-01T07:22:43.249Z,5.00
2023-02-01T07:23:16.713Z,5.70
2023-02-01T07:23:49.991Z,5.60
2023-02-01T07:24:23.814Z,5.10
2023-02-01T07:24:57.291Z,5.80
2023-02-01T07:25:30.678Z,5.80
2023-02-01T07:26:07.302Z,5.70
2023-02-01T07:26:40.688Z,5.70
2023-02-01T07:27:14.363Z,4.90
2023-02-01T07:27:47.948Z,5.80
2023-02-01T07:29:10.767Z,5.00
2023-02-01T07:29:27.275Z,4.70
2023-02-01T07:30:03.134Z,5.90
2023-02-01T07:30:36.732Z,5.10
2023-02-01T07:31:20.427Z,5.50
2023-02-01T07:31:54.173Z,5.80
2023-02-01T07:32:27.787Z,5.30
2023-02-01T07:33:02.298Z,5.20
2023-02-01T07:33:36.322Z,5.50
2023-02-01T07:34:09.778Z,5.90
2023-02-01T07:34:43.521Z,5.40
2023-02-01T07:35:16.853Z,4.20
2023-02-01T07:35:51.701Z,5.60
2023-02-01T07:36:25.427Z,6.00
2023-02-01T07:36:58.824Z,5.10
2023-02-01T07:37:32.290Z,5.80
2023-02-01T07:38:05.825Z,5.10
2023-02-01T07:38:39.381Z,4.90
2023-02-01T07:39:12.683Z,6.00
2023-02-01T07:39:46.524Z,5.40
2023-02-01T07:40:23.831Z,4.90
2023-02-01T07:41:02.214Z,5.60
2023-02-01T07:41:35.738Z,4.50
2023-02-01T07:42:09.783Z,4.90
2023-02-01T07:42:43.206Z,5.60
2023-02-01T07:43:16.868Z,4.70
2023-02-01T07:43:51.993Z,3.40
2023-02-01T07:44:25.448Z,5.30
2023-02-01T07:45:07.903Z,5.50
2023-02-01T07:45:53.487Z,5.50
2023-02-01T07:46:26.826Z,4.20
2023-02-01T07:47:00.247Z,6.30
2023-02-01T07:47:33.613Z,5.60
2023-02-01T07:48:06.946Z,4.90
2023-02-01T07:48:40.551Z,4.60
2023-02-01T07:49:15.086Z,5.30
2023-02-01T07:49:48.555Z,5.00
2023-02-01T07:50:22.313Z,5.80
2023-02-01T07:51:00.732Z,5.70
2023-02-01T07:51:34.211Z,3.90
2023-02-01T07:52:07.798Z,4.20
2023-02-01T07:52:41.932Z,4.70
2023-02-01T07:53:15.417Z,4.70
2023-02-01T07:53:48.822Z,5.90
2023-02-01T07:54:22.480Z,5.00
2023-02-01T07:54:55.926Z,4.80
2023-02-01T07:55:29.470Z,5.50
2023-02-01T07:56:04.146Z,4.70
2023-02-01T07:56:37.556Z,4.70
2023-02-01T07:57:12.980Z,5.20
2023-02-01T07:57:46.509Z,4.90
2023-02-01T07:58:19.852Z,4.80
2023-02-01T07:58:57.275Z,4.50
2023-02-01T07:59:30.874Z,5.70
2023-02-01T08:00:24.675Z,4.90
2023-02-01T08:01:17.141Z,5.00
2023-02-01T08:01:50.638Z,4.20
2023-02-01T08:02:24.356Z,4.60
2023-02-01T08:03:01.869Z,5.20
2023-02-01T08:03:35.527Z,4.80
2023-02-01T08:04:12.583Z,4.50
2023-02-01T08:04:46.080Z,5.20
2023-02-01T08:05:19.571Z,4.70
2023-02-01T08:05:57.126Z,3.90
2023-02-01T08:06:33.467Z,5.00
2023-02-01T08:07:06.834Z,4.70
2023-02-01T08:07:40.212Z,4.50
2023-02-01T08:08:14.232Z,4.50
2023-02-01T08:08:48.631Z,4.50
2023-02-01T08:09:22.033Z,4.40
2023-02-01T08:09:55.378Z,5.10
2023-02-01T08:10:28.875Z,4.30
2023-02-01T08:11:05.592Z,4.80
2023-02-01T08:11:39.115Z,4.30
2023-02-01T08:12:12.539Z,4.80
2023-02-01T08:12:50.077Z,4.40
2023-02-01T08:13:23.487Z,4.90
2023-02-01T08:13:56.995Z,4.80
2023-02-01T08:14:30.358Z,4.20
2023-02-01T08:15:04.897Z,3.90
2023-02-01T08:15:38.259Z,4.50
2023-02-01T08:16:13.860Z,4.40
2023-02-01T08:16:47.312Z,3.40
2023-02-01T08:17:21.431Z,4.60
2023-02-01T08:17:58.590Z,4.00
2023-02-01T08:18:32.546Z,3.80
2023-02-01T08:19:06.412Z,4.50
2023-02-01T08:19:40.057Z,3.60
2023-02-01T08:20:14.802Z,4.40
2023-02-01T08:20:48.869Z,4.00
2023-02-01T08:21:25.113Z,3.80
2023-02-01T08:22:00.409Z,3.60
2023-02-01T08:22:34.138Z,3.70
2023-02-01T08:23:10.435Z,4.00
2023-02-01T08:23:44.759Z,3.80
2023-02-01T08:24:18.113Z,3.30
2023-02-01T08:24:51.661Z,3.80
2023-02-01T08:25:25.321Z,3.10
2023-02-01T08:26:12.597Z,3.10
2023-02-01T08:26:45.935Z,3.00
2023-02-01T08:27:19.517Z,3.60
2023-02-01T08:27:53.124Z,2.70
2023-02-01T08:28:26.436Z,3.30
2023-02-01T08:29:02.435Z,3.00
2023-02-01T08:29:36.041Z,3.30
2023-02-01T08:30:10.188Z,3.60
2023-02-01T08:30:43.806Z,3.20
2023-02-01T08:31:19.645Z,3.70
2023-02-01T08:31:53.210Z,2.90
2023-02-01T08:32:27.840Z,3.30
2023-02-01T08:33:02.338Z,3.30
2023-02-01T08:33:38.088Z,3.10
2023-02-01T08:34:13.156Z,2.90
2023-02-01T08:34:46.692Z,3.10
2023-02-01T08:35:21.182Z,2.50
2023-02-01T08:35:55.811Z,2.40
2023-02-01T08:36:31.276Z,3.00
2023-02-01T08:37:04.729Z,2.80
2023-02-01T08:37:38.411Z,3.10
2023-02-01T08:38:12.041Z,2.60
2023-02-01T08:38:45.718Z,2.60
2023-02-01T08:39:19.332Z,3.20
2023-02-01T08:39:52.782Z,2.90
2023-02-01T08:40:26.210Z,2.80
2023-02-01T08:41:05.985Z,3.00
2023-02-01T08:41:39.599Z,2.90
2023-02-01T08:42:34.585Z,3.30
2023-02-01T08:43:08.350Z,2.90
2023-02-01T08:43:42.505Z,2.10
2023-02-01T08:44:18.377Z,2.80
2023-02-01T08:44:52.797Z,2.50
2023-02-01T08:45:32.850Z,3.20
2023-02-01T08:46:07.460Z,2.60
2023-02-01T08:46:41.052Z,3.00
2023-02-01T08:47:14.424Z,2.70
2023-02-01T08:47:50.569Z,3.00
2023-02-01T08:48:23.960Z,2.70
2023-02-01T08:48:57.538Z,3.00
2023-02-01T08:49:30.952Z,3.30
2023-02-01T08:50:04.712Z,3.20
2023-02-01T08:50:38.213Z,3.30
2023-02-01T08:51:13.656Z,2.10
2023-02-01T08:51:47.268Z,2.80
2023-02-01T08:52:20.610Z,3.20
2023-02-01T08:52:54.905Z,3.70
2023-02-01T08:53:28.403Z,2.60
2023-02-01T08:54:02.693Z,3.40
2023-02-01T08:54:36.303Z,3.30
2023-02-01T08:55:10.924Z,3.50
2023-02-01T08:55:44.454Z,2.80
2023-02-01T08:56:19.902Z,3.30
2023-02-01T08:56:54.862Z,3.10
2023-02-01T08:57:28.728Z,2.30
2023-02-01T08:58:02.154Z,1.90
2023-02-01T08:58:35.735Z,3.00
2023-02-01T08:59:09.157Z,3.30
2023-02-01T08:59:44.634Z,3.50
2023-02-01T09:00:19.460Z,3.10
2023-02-01T09:00:53.069Z,2.50
2023-02-01T09:01:26.594Z,3.20
2023-02-01T09:02:00.112Z,2.50
2023-02-01T09:02:33.626Z,3.10
2023-02-01T09:03:10.562Z,3.50
2023-02-01T09:03:47.061Z,3.30
2023-02-01T09:04:21.670Z,3.30
2023-02-01T09:04:56.823Z,3.00
2023-02-01T09:05:43.966Z,3.30
2023-02-01T09:06:22.338Z,2.00
2023-02-01T09:06:56.931Z,3.30
2023-02-01T09:07:30.408Z,2.80
2023-02-01T09:08:04.144Z,2.50
2023-02-01T09:08:39.263Z,3.10
2023-02-01T09:09:12.894Z,2.80
2023-02-01T09:09:46.786Z,3.30
2023-02-01T09:10:33.545Z,3.00
2023-02-01T09:11:12.554Z,2.60
2023-02-01T09:11:45.995Z,3.30
2023-02-01T09:12:19.433Z,3.00
2023-02-01T09:12:53.282Z,3.00
2023-02-01T09:13:26.631Z,3.30
2023-02-01T09:14:00.281Z,3.70
2023-02-01T09:14:33.780Z,3.90
2023-02-01T09:15:08.419Z,3.00
2023-02-01T09:15:41.871Z,3.50
2023-02-01T09:16:15.510Z,3.50